Mc Donald, Tennessee
Current Conditions -  °F | °C
As of 4:53 PM on Thursday 25 Dec 2014 (Local Time) from KCHA Reporting Station
Few Clouds Few Clouds  
Wind Chill: 50°   Ceiling: Unl
Heat Index: 50°   Visibility: 10mi
Dew Point: 34°   Wind: 5mph
Humidity: 54%   Direction: 170°S
Pressure: 30.24"   Gusts: NA
Location:  35.0848°N, 84.9886°W
Report Text: KCHA 252153Z 17004KT 10SM FEW250 10/01 A3024 RMK AO2 SLP240 T01000011
Loading
Personal Weather Stations






























Interactive Weather Map New forecast layout! Learn more

10-Day Weather Forecast

Advertisements
Track Severe Weather on mobile